Time;durP1;ratioP1;P1;durP2;ratioP2;P2;SDS_P1;SDS_P2;PMS_P1;PMS_P2;Temp;Humidity;BMP_temperature;BMP_pressure;BME280_temperature;BME280_humidity;BME280_pressure;Samples;Min_cycle;Max_cycle;Signal;HPM_P1;HPM_P2
2023/10/28 00:00:44;;;;;;;0.30;0.30;;;11.10;99.90;;;;;;4989427;28;20102;-64
2023/10/28 00:03:10;;;;;;;0.17;0.17;;;11.20;99.90;;;;;;4991165;28;20173;-64
2023/10/28 00:05:36;;;;;;;0.10;0.10;;;11.10;99.90;;;;;;4986461;28;20046;-65
2023/10/28 00:08:03;;;;;;;0.40;0.40;;;11.10;99.90;;;;;;4990057;28;20041;-64
2023/10/28 00:10:30;;;;;;;0.10;0.10;;;11.20;99.90;;;;;;4983723;28;20038;-65
2023/10/28 00:12:55;;;;;;;0.85;0.85;;;11.20;99.90;;;;;;4986955;28;20046;-64
2023/10/28 00:15:21;;;;;;;0.20;0.20;;;11.10;99.90;;;;;;4990420;28;20041;-65
2023/10/28 00:17:47;;;;;;;0.17;0.17;;;11.20;99.90;;;;;;4982836;28;20074;-64
2023/10/28 00:20:17;;;;;;;0.17;0.17;;;11.20;99.90;;;;;;4991461;28;20041;-64
2023/10/28 00:22:53;;;;;;;1.00;0.68;;;11.20;99.90;;;;;;4982272;28;20046;-64
2023/10/28 00:25:22;;;;;;;0.30;0.30;;;11.20;99.90;;;;;;4986223;28;20042;-65
2023/10/28 00:27:48;;;;;;;1.38;1.10;;;11.10;99.90;;;;;;4987431;28;20527;-64
2023/10/28 00:30:14;;;;;;;0.70;0.68;;;11.10;99.90;;;;;;4985251;28;20042;-64
2023/10/28 00:32:41;;;;;;;0.52;0.52;;;11.10;99.90;;;;;;4985901;28;20513;-64
2023/10/28 00:35:08;;;;;;;0.80;0.45;;;11.20;99.90;;;;;;4990169;28;20050;-64
2023/10/28 00:37:34;;;;;;;1.27;1.17;;;11.20;99.90;;;;;;4989428;28;20046;-64
2023/10/28 00:40:00;;;;;;;1.73;0.75;;;11.10;99.90;;;;;;4983637;28;20069;-64
2023/10/28 00:42:26;;;;;;;0.65;0.65;;;11.10;99.90;;;;;;4990873;28;20638;-64
2023/10/28 00:44:54;;;;;;;1.48;1.38;;;11.10;99.90;;;;;;4988550;28;20150;-65
2023/10/28 00:47:22;;;;;;;0.30;0.30;;;11.10;99.90;;;;;;4986521;28;20046;-65
2023/10/28 00:49:48;;;;;;;0.45;0.45;;;11.10;99.90;;;;;;4990716;28;20121;-65
2023/10/28 00:52:14;;;;;;;0.32;0.32;;;11.10;99.90;;;;;;4989912;28;20057;-64
2023/10/28 00:54:40;;;;;;;0.43;0.40;;;11.10;99.90;;;;;;4977572;28;20050;-64
2023/10/28 00:57:06;;;;;;;0.40;0.40;;;11.10;99.90;;;;;;4981891;28;20121;-65
2023/10/28 00:59:32;;;;;;;0.75;0.75;;;11.00;99.90;;;;;;4986278;28;20146;-65
2023/10/28 01:01:57;;;;;;;0.17;0.17;;;11.00;99.90;;;;;;4983009;28;20065;-64
2023/10/28 01:04:23;;;;;;;1.02;0.98;;;11.00;99.90;;;;;;4989281;28;20576;-64
2023/10/28 01:06:49;;;;;;;0.35;0.35;;;11.00;99.90;;;;;;4986675;28;20441;-64
2023/10/28 01:09:15;;;;;;;0.40;0.40;;;10.90;99.90;;;;;;4986766;28;20049;-65
2023/10/28 01:11:40;;;;;;;0.45;0.45;;;10.90;99.90;;;;;;4987913;28;20061;-64
2023/10/28 01:14:06;;;;;;;0.30;0.30;;;10.90;99.90;;;;;;4989041;28;20089;-64
2023/10/28 01:16:33;;;;;;;0.30;0.30;;;10.90;99.90;;;;;;4981482;28;20042;-64
2023/10/28 01:18:59;;;;;;;0.20;0.20;;;10.90;99.90;;;;;;4982804;28;20042;-65
2023/10/28 01:21:25;;;;;;;1.17;1.15;;;10.90;99.90;;;;;;4982991;28;20084;-64
2023/10/28 01:23:51;;;;;;;2.38;2.08;;;10.90;99.90;;;;;;4981824;28;20034;-64
2023/10/28 01:26:17;;;;;;;0.95;0.88;;;10.90;99.90;;;;;;4985333;28;20509;-64
2023/10/28 01:28:43;;;;;;;1.15;1.10;;;10.80;99.90;;;;;;4985697;28;20046;-65
2023/10/28 01:31:08;;;;;;;0.17;0.17;;;10.90;99.90;;;;;;5001328;28;20082;-64
2023/10/28 01:33:34;;;;;;;0.13;0.13;;;10.80;99.90;;;;;;4983330;28;20074;-64
2023/10/28 01:36:00;;;;;;;0.80;0.80;;;10.80;99.90;;;;;;4985629;28;20045;-64
2023/10/28 01:38:26;;;;;;;0.57;0.57;;;10.80;99.90;;;;;;4984222;28;20042;-64
2023/10/28 01:40:52;;;;;;;0.60;0.60;;;10.80;99.90;;;;;;4987376;28;20482;-64
2023/10/28 01:43:19;;;;;;;0.10;0.10;;;10.80;99.90;;;;;;4988849;28;20046;-64
2023/10/28 01:45:45;;;;;;;1.23;1.13;;;10.80;99.90;;;;;;4984966;28;20533;-64
2023/10/28 01:48:11;;;;;;;0.22;0.22;;;10.70;99.90;;;;;;4987198;28;20085;-64
2023/10/28 01:50:37;;;;;;;2.05;1.75;;;10.70;99.90;;;;;;4988134;28;20035;-64
2023/10/28 01:53:03;;;;;;;0.50;0.50;;;10.70;99.90;;;;;;4979794;28;20043;-65
2023/10/28 01:55:29;;;;;;;0.50;0.50;;;10.60;99.90;;;;;;4977950;28;20061;-64
2023/10/28 01:57:55;;;;;;;0.13;0.13;;;10.60;99.90;;;;;;4980415;28;20078;-64
2023/10/28 02:00:22;;;;;;;0.10;0.10;;;10.60;99.90;;;;;;4979388;28;20050;-64
2023/10/28 02:02:48;;;;;;;0.45;0.45;;;10.60;99.90;;;;;;4988605;28;20043;-64
2023/10/28 02:05:15;;;;;;;0.95;0.80;;;10.60;99.90;;;;;;4990358;28;20046;-64
2023/10/28 02:07:41;;;;;;;2.30;0.65;;;10.60;99.90;;;;;;4974421;28;20035;-64
2023/10/28 02:10:07;;;;;;;0.40;0.40;;;10.60;99.90;;;;;;4988182;28;20057;-65
2023/10/28 02:12:34;;;;;;;0.10;0.10;;;10.60;99.90;;;;;;4980669;28;21037;-65
2023/10/28 02:15:04;;;;;;;1.05;1.05;;;10.70;99.90;;;;;;4989755;28;20043;-64
2023/10/28 02:17:30;;;;;;;0.98;0.98;;;10.60;99.90;;;;;;4983543;28;20035;-64
2023/10/28 02:19:56;;;;;;;0.20;0.20;;;10.60;99.90;;;;;;4986303;28;20042;-64
2023/10/28 02:22:22;;;;;;;0.60;0.60;;;10.60;99.90;;;;;;4984145;28;20058;-64
2023/10/28 02:24:48;;;;;;;1.15;1.02;;;10.70;99.90;;;;;;4972265;28;20503;-64
2023/10/28 02:27:13;;;;;;;0.38;0.38;;;10.60;99.90;;;;;;4983113;28;20093;-64
2023/10/28 02:29:39;;;;;;;0.90;0.90;;;10.60;99.90;;;;;;4987556;28;20149;-64
2023/10/28 02:32:09;;;;;;;2.17;1.58;;;10.60;99.90;;;;;;4979119;28;20050;-64
2023/10/28 02:34:35;;;;;;;0.32;0.32;;;10.60;99.90;;;;;;4988570;28;20052;-64
2023/10/28 02:37:00;;;;;;;1.02;1.02;;;10.60;99.90;;;;;;4979206;28;20049;-64
2023/10/28 02:39:26;;;;;;;0.20;0.20;;;10.60;99.90;;;;;;4987697;28;20054;-64
2023/10/28 02:41:53;;;;;;;0.30;0.30;;;10.50;99.90;;;;;;4986141;28;20042;-64
2023/10/28 02:44:19;;;;;;;0.40;0.40;;;10.60;99.90;;;;;;4983890;28;20069;-64
2023/10/28 02:46:44;;;;;;;0.30;0.30;;;10.60;99.90;;;;;;4990150;28;20394;-65
2023/10/28 02:49:11;;;;;;;0.65;0.65;;;10.50;99.90;;;;;;4984416;28;20077;-65
2023/10/28 02:51:37;;;;;;;5.10;1.23;;;10.40;99.90;;;;;;4980727;28;20077;-64
2023/10/28 02:54:03;;;;;;;0.45;0.45;;;10.40;99.90;;;;;;4992451;28;20042;-64
2023/10/28 02:56:29;;;;;;;0.10;0.10;;;10.40;99.90;;;;;;4989611;28;20112;-65
2023/10/28 02:58:55;;;;;;;0.47;0.47;;;10.40;99.90;;;;;;4979920;28;20077;-64
2023/10/28 03:01:20;;;;;;;0.43;0.43;;;10.30;99.90;;;;;;4993031;28;20046;-64
2023/10/28 03:03:46;;;;;;;0.60;0.60;;;10.20;99.90;;;;;;4991079;28;20050;-64
2023/10/28 03:06:12;;;;;;;1.15;1.05;;;10.30;99.90;;;;;;4983241;28;20039;-65
2023/10/28 03:08:38;;;;;;;0.30;0.30;;;10.20;99.90;;;;;;4989722;28;20046;-64
2023/10/28 03:11:04;;;;;;;1.70;1.60;;;10.20;99.90;;;;;;4988221;28;20043;-65
2023/10/28 03:13:30;;;;;;;0.30;0.30;;;10.20;99.90;;;;;;4987847;28;20043;-64
2023/10/28 03:15:56;;;;;;;0.03;0.03;;;10.10;99.90;;;;;;4984032;28;20039;-64
2023/10/28 03:18:22;;;;;;;0.30;0.30;;;10.10;99.90;;;;;;4990387;28;20057;-65
2023/10/28 03:20:48;;;;;;;0.47;0.47;;;10.10;99.90;;;;;;4989866;28;20121;-64
2023/10/28 03:23:14;;;;;;;1.10;1.10;;;10.10;99.90;;;;;;4987735;28;20434;-64
2023/10/28 03:25:40;;;;;;;0.30;0.30;;;10.00;99.90;;;;;;4980445;28;20502;-64
2023/10/28 03:28:06;;;;;;;0.22;0.22;;;10.00;99.90;;;;;;4983093;28;20120;-64
2023/10/28 03:30:32;;;;;;;0.88;0.85;;;9.90;99.90;;;;;;4990468;28;20068;-64
2023/10/28 03:32:59;;;;;;;0.45;0.45;;;9.90;99.90;;;;;;4988350;28;20125;-64
2023/10/28 03:35:24;;;;;;;0.70;0.70;;;9.90;99.90;;;;;;4983518;28;20049;-64
2023/10/28 03:37:50;;;;;;;0.70;0.70;;;9.80;99.90;;;;;;4986280;28;20049;-64
2023/10/28 03:40:16;;;;;;;0.85;0.85;;;9.80;99.90;;;;;;4983518;28;20394;-64
2023/10/28 03:42:41;;;;;;;0.20;0.20;;;9.80;99.90;;;;;;4986026;28;20038;-65
2023/10/28 03:45:07;;;;;;;0.63;0.63;;;9.80;99.90;;;;;;4991511;28;20453;-64
2023/10/28 03:47:33;;;;;;;0.35;0.35;;;9.80;99.90;;;;;;4979153;28;20047;-65
2023/10/28 03:49:59;;;;;;;0.85;0.55;;;9.70;99.90;;;;;;4989623;28;20129;-64
2023/10/28 03:52:25;;;;;;;0.52;0.52;;;9.80;99.90;;;;;;4991426;28;20180;-65
2023/10/28 03:54:51;;;;;;;1.55;1.20;;;9.70;99.90;;;;;;4983579;28;20121;-64
2023/10/28 03:57:16;;;;;;;0.17;0.17;;;9.70;99.90;;;;;;4987198;28;20511;-65
2023/10/28 03:59:42;;;;;;;0.20;0.20;;;9.70;99.90;;;;;;4990064;28;20046;-64
2023/10/28 04:02:08;;;;;;;0.10;0.10;;;9.70;99.90;;;;;;4980694;28;20482;-65
2023/10/28 04:04:33;;;;;;;0.85;0.75;;;9.70;99.90;;;;;;4980951;28;20125;-64
2023/10/28 04:06:59;;;;;;;1.98;0.30;;;9.70;99.90;;;;;;4984612;28;20085;-64
2023/10/28 04:09:25;;;;;;;0.30;0.30;;;9.60;99.90;;;;;;4984143;28;20068;-64
2023/10/28 04:11:50;;;;;;;0.08;0.08;;;9.60;99.90;;;;;;4983656;28;20043;-65
2023/10/28 04:14:16;;;;;;;1.20;0.68;;;9.60;99.90;;;;;;4997953;28;20051;-64
2023/10/28 04:16:42;;;;;;;0.93;0.80;;;9.60;99.90;;;;;;4981061;28;20042;-64
2023/10/28 04:19:07;;;;;;;0.10;0.10;;;9.50;99.90;;;;;;4984678;28;20378;-65
2023/10/28 04:21:33;;;;;;;1.10;1.08;;;9.50;99.90;;;;;;4983731;28;20490;-64
2023/10/28 04:23:59;;;;;;;0.08;0.08;;;9.50;99.90;;;;;;4982142;28;20051;-64
2023/10/28 04:26:24;;;;;;;0.40;0.40;;;9.50;99.90;;;;;;4980201;28;20458;-65
2023/10/28 04:28:50;;;;;;;0.20;0.20;;;9.50;99.90;;;;;;4982605;28;20061;-64
2023/10/28 04:31:16;;;;;;;0.32;0.32;;;9.50;99.90;;;;;;4983140;28;20043;-64
2023/10/28 04:33:41;;;;;;;0.10;0.10;;;9.50;99.90;;;;;;4978962;28;20047;-64
2023/10/28 04:36:10;;;;;;;0.10;0.10;;;9.50;99.90;;;;;;4986680;28;20042;-64
2023/10/28 04:38:37;;;;;;;1.20;1.10;;;9.50;99.90;;;;;;4986886;28;20405;-64
2023/10/28 04:41:03;;;;;;;3.58;0.63;;;9.50;99.90;;;;;;4988705;28;20081;-64
2023/10/28 04:43:29;;;;;;;0.70;0.70;;;9.40;99.90;;;;;;4983722;28;20055;-64
2023/10/28 04:45:54;;;;;;;0.40;0.40;;;9.40;99.90;;;;;;4990201;28;20038;-64
2023/10/28 04:48:21;;;;;;;0.40;0.40;;;9.40;99.90;;;;;;4986960;28;20043;-64
2023/10/28 04:50:48;;;;;;;0.15;0.15;;;9.40;99.90;;;;;;4983201;28;20050;-64
2023/10/28 04:53:14;;;;;;;1.30;0.50;;;9.40;99.90;;;;;;4986247;28;20049;-64
2023/10/28 04:55:41;;;;;;;0.40;0.40;;;9.40;99.90;;;;;;4978957;28;20441;-65
2023/10/28 04:58:07;;;;;;;6.32;1.15;;;9.40;99.90;;;;;;4987587;28;20128;-64
2023/10/28 05:00:32;;;;;;;0.32;0.32;;;9.40;99.90;;;;;;4989606;28;20421;-65
2023/10/28 05:02:58;;;;;;;0.55;0.55;;;9.40;99.90;;;;;;4986397;28;20038;-64
2023/10/28 05:05:24;;;;;;;0.88;0.65;;;9.40;99.90;;;;;;4980859;28;20043;-64
2023/10/28 05:07:50;;;;;;;1.38;1.27;;;9.40;99.90;;;;;;4989070;28;20054;-64
2023/10/28 05:10:15;;;;;;;3.20;2.38;;;9.40;99.90;;;;;;4987738;28;20038;-64
2023/10/28 05:12:41;;;;;;;4.65;2.50;;;9.40;99.90;;;;;;4981009;28;20521;-64
2023/10/28 05:15:08;;;;;;;0.30;0.30;;;9.40;99.90;;;;;;4985236;28;20042;-64
2023/10/28 05:17:35;;;;;;;0.38;0.38;;;9.40;99.90;;;;;;4984790;28;20121;-64
2023/10/28 05:20:01;;;;;;;0.10;0.10;;;9.40;99.90;;;;;;4994142;28;20046;-64
2023/10/28 05:22:27;;;;;;;0.73;0.73;;;9.40;99.90;;;;;;4987216;28;20063;-64
2023/10/28 05:24:54;;;;;;;0.30;0.30;;;9.40;99.90;;;;;;4980396;28;20042;-65
2023/10/28 05:27:19;;;;;;;0.60;0.50;;;9.50;99.90;;;;;;4983430;28;20054;-64
2023/10/28 05:29:45;;;;;;;0.32;0.32;;;9.50;99.90;;;;;;4980969;28;20038;-64
2023/10/28 05:32:10;;;;;;;0.40;0.40;;;9.40;99.90;;;;;;4989165;28;20093;-64
2023/10/28 05:34:36;;;;;;;0.10;0.10;;;9.40;99.90;;;;;;4987192;28;20058;-64
2023/10/28 05:37:02;;;;;;;2.30;1.75;;;9.40;99.90;;;;;;4976792;28;20038;-64
2023/10/28 05:39:28;;;;;;;0.20;0.20;;;9.50;99.90;;;;;;4988384;28;20081;-64
2023/10/28 05:41:54;;;;;;;0.30;0.30;;;9.40;99.90;;;;;;4979591;28;20124;-64
2023/10/28 05:44:19;;;;;;;0.73;0.73;;;9.40;99.90;;;;;;4976321;28;20077;-64
2023/10/28 05:46:45;;;;;;;0.22;0.22;;;9.50;99.90;;;;;;4983672;28;20046;-64
2023/10/28 05:49:12;;;;;;;0.17;0.17;;;9.40;99.90;;;;;;4988421;28;20369;-64
2023/10/28 05:51:38;;;;;;;0.88;0.88;;;9.50;99.90;;;;;;4975519;28;20039;-64
2023/10/28 05:54:04;;;;;;;1.00;0.73;;;9.50;99.90;;;;;;4982206;28;20486;-64
2023/10/28 05:56:30;;;;;;;0.25;0.25;;;9.50;99.90;;;;;;4989063;28;20056;-64
2023/10/28 05:58:58;;;;;;;8.38;1.17;;;9.50;99.90;;;;;;4982821;28;20065;-64
2023/10/28 06:01:24;;;;;;;0.40;0.40;;;9.50;99.90;;;;;;4977829;28;20561;-64
2023/10/28 06:03:50;;;;;;;0.10;0.10;;;9.60;99.90;;;;;;4989286;28;20437;-64
2023/10/28 06:06:15;;;;;;;0.00;0.00;;;9.60;99.90;;;;;;4989164;28;20046;-64
2023/10/28 06:08:41;;;;;;;0.10;0.10;;;9.60;99.90;;;;;;4977071;28;20140;-64
2023/10/28 06:11:09;;;;;;;0.13;0.13;;;9.60;99.90;;;;;;4987228;28;20077;-64
2023/10/28 06:13:38;;;;;;;0.38;0.38;;;9.70;99.90;;;;;;4979333;28;20132;-64
2023/10/28 06:16:04;;;;;;;1.00;0.40;;;9.70;99.90;;;;;;4985277;28;20449;-64
2023/10/28 06:18:32;;;;;;;0.20;0.20;;;9.70;99.90;;;;;;4984722;28;20085;-64
2023/10/28 06:20:58;;;;;;;0.20;0.20;;;9.70;99.90;;;;;;4990051;28;20046;-64
2023/10/28 06:23:23;;;;;;;1.35;1.25;;;9.70;99.90;;;;;;4983773;28;20054;-64
2023/10/28 06:25:49;;;;;;;0.10;0.10;;;9.80;99.90;;;;;;4990019;28;20050;-64
2023/10/28 06:28:14;;;;;;;0.10;0.10;;;9.80;99.90;;;;;;4988350;28;20409;-64
2023/10/28 06:30:47;;;;;;;1.45;0.80;;;9.80;99.90;;;;;;4985691;28;20049;-64
2023/10/28 06:33:13;;;;;;;0.10;0.10;;;9.90;99.90;;;;;;4987937;28;20121;-64
2023/10/28 06:35:38;;;;;;;0.10;0.10;;;9.90;99.90;;;;;;4989469;28;20444;-64
2023/10/28 06:38:06;;;;;;;0.47;0.47;;;9.90;99.90;;;;;;4984180;28;20046;-64
2023/10/28 06:40:32;;;;;;;0.10;0.10;;;9.90;99.90;;;;;;4989689;28;20167;-64
2023/10/28 06:42:58;;;;;;;0.10;0.10;;;10.00;99.90;;;;;;4993280;28;20494;-64
2023/10/28 06:45:23;;;;;;;0.85;0.52;;;10.00;99.90;;;;;;4984342;28;20050;-65
2023/10/28 06:47:50;;;;;;;0.20;0.20;;;10.10;99.90;;;;;;4988348;28;20117;-64
2023/10/28 06:50:19;;;;;;;0.10;0.10;;;10.10;99.90;;;;;;4991057;28;20042;-65
2023/10/28 06:52:48;;;;;;;0.85;0.73;;;10.10;99.90;;;;;;4985265;28;20085;-64
2023/10/28 06:55:14;;;;;;;0.10;0.10;;;10.20;99.90;;;;;;4982499;28;20125;-64
2023/10/28 06:57:41;;;;;;;0.10;0.10;;;10.20;99.90;;;;;;4992253;28;20130;-65
2023/10/28 07:00:12;;;;;;;0.90;0.90;;;10.30;99.90;;;;;;4990333;28;20057;-64
2023/10/28 07:02:39;;;;;;;2.10;1.75;;;10.30;99.90;;;;;;4983330;28;20038;-64
2023/10/28 07:05:05;;;;;;;0.00;0.00;;;10.30;99.90;;;;;;4984679;28;20064;-64
2023/10/28 07:07:30;;;;;;;0.00;0.00;;;10.40;99.90;;;;;;4992400;28;20038;-65
2023/10/28 07:09:57;;;;;;;0.25;0.25;;;10.40;99.90;;;;;;4992054;28;20043;-64
2023/10/28 07:12:22;;;;;;;10.23;0.73;;;10.50;99.90;;;;;;4980096;28;20494;-65
2023/10/28 07:14:48;;;;;;;0.63;0.63;;;10.50;99.90;;;;;;4989285;28;20053;-64
2023/10/28 07:17:13;;;;;;;2.97;1.55;;;10.50;99.90;;;;;;4983937;28;20042;-64
2023/10/28 07:19:39;;;;;;;0.32;0.32;;;10.60;99.90;;;;;;4988616;28;20129;-64
2023/10/28 07:22:05;;;;;;;0.10;0.10;;;10.60;99.90;;;;;;4982248;28;20045;-64
2023/10/28 07:24:31;;;;;;;0.10;0.10;;;10.70;99.90;;;;;;4986715;28;20403;-65
2023/10/28 07:26:57;;;;;;;0.10;0.10;;;10.70;99.90;;;;;;4987581;28;20150;-64
2023/10/28 07:29:22;;;;;;;0.10;0.10;;;10.70;99.90;;;;;;4974117;28;20038;-65
2023/10/28 07:31:48;;;;;;;0.10;0.10;;;10.70;99.90;;;;;;4989962;28;20050;-64
2023/10/28 07:34:14;;;;;;;0.20;0.20;;;10.80;99.90;;;;;;4990957;28;20046;-64
2023/10/28 07:36:39;;;;;;;0.68;0.68;;;10.80;99.90;;;;;;4981093;28;20046;-64
2023/10/28 07:39:05;;;;;;;0.32;0.32;;;10.90;99.90;;;;;;4989626;28;20061;-64
2023/10/28 07:41:31;;;;;;;0.22;0.22;;;10.90;99.90;;;;;;4990374;28;20038;-65
2023/10/28 07:43:57;;;;;;;0.30;0.30;;;11.00;99.90;;;;;;4986945;28;20405;-65
2023/10/28 07:46:26;;;;;;;0.00;0.00;;;11.00;99.90;;;;;;4990282;28;20482;-64
2023/10/28 07:48:53;;;;;;;0.82;0.80;;;11.10;99.90;;;;;;4991343;28;20050;-64
2023/10/28 07:51:19;;;;;;;0.30;0.30;;;11.10;99.90;;;;;;4992620;28;20030;-64
2023/10/28 07:53:48;;;;;;;0.10;0.10;;;11.10;99.90;;;;;;4985568;28;20034;-64
2023/10/28 07:56:15;;;;;;;10.32;1.55;;;11.20;99.90;;;;;;4991348;28;20050;-64
2023/10/28 07:58:41;;;;;;;0.73;0.73;;;11.20;99.90;;;;;;4990240;28;20091;-64
2023/10/28 08:01:16;;;;;;;0.00;0.00;;;11.20;99.90;;;;;;4991804;28;20482;-64
2023/10/28 08:03:45;;;;;;;1.55;0.85;;;11.30;99.90;;;;;;4979792;28;20046;-64
2023/10/28 08:06:12;;;;;;;0.10;0.10;;;11.30;99.90;;;;;;4988498;28;20046;-64
2023/10/28 08:08:39;;;;;;;0.10;0.10;;;11.30;99.90;;;;;;4977468;28;20521;-64
2023/10/28 08:11:13;;;;;;;0.25;0.25;;;11.30;99.90;;;;;;4978939;28;20042;-64
2023/10/28 08:13:39;;;;;;;0.98;0.70;;;11.30;99.90;;;;;;4989995;28;20041;-65
2023/10/28 08:16:09;;;;;;;0.10;0.10;;;11.30;99.90;;;;;;4986870;28;20050;-65
2023/10/28 08:18:38;;;;;;;0.10;0.10;;;11.30;99.90;;;;;;4990625;28;20418;-64
2023/10/28 08:21:04;;;;;;;0.10;0.10;;;11.30;99.90;;;;;;4982669;28;20125;-65
2023/10/28 08:23:29;;;;;;;0.45;0.45;;;11.20;99.90;;;;;;4985900;28;20121;-64
2023/10/28 08:25:57;;;;;;;0.20;0.20;;;11.30;99.90;;;;;;4985220;28;20498;-64
2023/10/28 08:28:22;;;;;;;0.10;0.10;;;11.20;99.90;;;;;;4990285;28;20481;-64
2023/10/28 08:30:48;;;;;;;0.20;0.20;;;11.20;99.90;;;;;;4985234;28;20061;-64
2023/10/28 08:33:14;;;;;;;0.10;0.10;;;11.20;99.90;;;;;;4974261;28;20030;-64
2023/10/28 08:35:39;;;;;;;0.52;0.32;;;11.20;99.90;;;;;;4985856;28;20085;-65
2023/10/28 08:38:05;;;;;;;0.43;0.43;;;11.30;99.90;;;;;;4989853;28;20038;-64
2023/10/28 08:40:34;;;;;;;0.10;0.10;;;11.20;99.90;;;;;;4982907;28;20038;-65
2023/10/28 08:43:00;;;;;;;0.20;0.20;;;11.20;99.90;;;;;;4983373;28;20442;-65
2023/10/28 08:45:29;;;;;;;0.20;0.20;;;11.20;99.90;;;;;;4985446;28;20046;-65
2023/10/28 08:47:54;;;;;;;0.75;0.75;;;11.20;99.90;;;;;;4991937;28;20053;-65
2023/10/28 08:50:24;;;;;;;1.25;0.77;;;11.20;99.90;;;;;;4990950;28;20398;-65
2023/10/28 08:52:56;;;;;;;0.10;0.10;;;11.20;99.90;;;;;;4976643;28;20395;-65
2023/10/28 08:55:23;;;;;;;0.10;0.10;;;11.20;99.90;;;;;;4985051;28;20046;-64
2023/10/28 08:57:49;;;;;;;1.02;0.98;;;11.30;99.90;;;;;;4981041;28;20090;-65
2023/10/28 09:00:16;;;;;;;0.00;0.00;;;11.30;99.90;;;;;;4978419;28;20090;-65
2023/10/28 09:02:48;;;;;;;0.17;0.17;;;11.30;99.90;;;;;;4987997;28;20085;-65
2023/10/28 09:05:15;;;;;;;0.17;0.17;;;11.30;99.90;;;;;;4981730;28;20394;-64
2023/10/28 09:07:43;;;;;;;1.33;0.52;;;11.30;99.90;;;;;;4987289;28;20569;-64
2023/10/28 09:10:10;;;;;;;0.20;0.20;;;11.30;99.90;;;;;;4980116;28;20398;-64
2023/10/28 09:12:36;;;;;;;0.20;0.20;;;11.30;99.90;;;;;;4986166;28;20050;-65
2023/10/28 09:15:03;;;;;;;0.10;0.10;;;11.30;99.90;;;;;;4989408;28;20038;-65
2023/10/28 09:17:29;;;;;;;0.10;0.10;;;11.30;99.90;;;;;;4988891;28;20057;-65
2023/10/28 09:19:56;;;;;;;0.40;0.40;;;11.30;99.90;;;;;;4984873;28;20536;-65
2023/10/28 09:22:23;;;;;;;0.75;0.65;;;11.30;99.90;;;;;;4983387;28;20082;-65
2023/10/28 09:24:52;;;;;;;0.15;0.15;;;11.40;99.90;;;;;;4989030;28;20092;-65
2023/10/28 09:27:18;;;;;;;0.43;0.43;;;11.40;99.90;;;;;;4982902;28;20038;-65
2023/10/28 09:29:44;;;;;;;0.57;0.57;;;11.50;99.90;;;;;;4989980;28;20050;-65
2023/10/28 09:32:10;;;;;;;0.10;0.10;;;11.60;99.90;;;;;;4991272;28;20046;-65
2023/10/28 09:34:40;;;;;;;0.10;0.10;;;11.60;99.90;;;;;;4978237;28;20038;-65
2023/10/28 09:37:07;;;;;;;0.10;0.10;;;11.70;99.90;;;;;;4988809;28;20445;-65
2023/10/28 09:39:33;;;;;;;0.10;0.10;;;11.60;99.90;;;;;;4977495;28;20129;-65
2023/10/28 09:42:00;;;;;;;0.40;0.40;;;11.70;99.90;;;;;;4987910;28;20030;-65
2023/10/28 09:44:26;;;;;;;0.10;0.10;;;11.70;99.90;;;;;;4978060;28;20046;-65
2023/10/28 09:46:59;;;;;;;0.10;0.10;;;11.60;99.90;;;;;;4986271;28;20356;-65
2023/10/28 09:49:27;;;;;;;0.10;0.10;;;11.70;99.90;;;;;;4990608;28;20046;-65
2023/10/28 09:51:56;;;;;;;0.00;0.00;;;11.70;99.90;;;;;;4976553;28;20054;-64
2023/10/28 09:54:29;;;;;;;0.35;0.35;;;11.70;99.90;;;;;;4991471;28;20042;-64
2023/10/28 09:56:59;;;;;;;0.00;0.00;;;11.60;99.90;;;;;;4986212;28;20061;-64
2023/10/28 09:59:27;;;;;;;0.17;0.15;;;11.70;99.90;;;;;;4989620;28;20047;-64
2023/10/28 10:02:12;;;;;;;0.10;0.10;;;11.70;99.90;;;;;;4981955;28;20034;-64
2023/10/28 10:04:43;;;;;;;0.00;0.00;;;11.70;99.90;;;;;;4982248;28;20055;-64
2023/10/28 10:07:09;;;;;;;0.10;0.10;;;11.70;99.90;;;;;;4986615;28;20038;-65
2023/10/28 10:09:41;;;;;;;0.22;0.22;;;11.70;99.90;;;;;;4978161;28;20054;-65
2023/10/28 10:12:07;;;;;;;0.05;0.05;;;11.70;99.90;;;;;;4988695;28;20057;-64
2023/10/28 10:14:36;;;;;;;0.10;0.10;;;11.70;99.90;;;;;;4984603;28;20034;-64
2023/10/28 10:17:16;;;;;;;0.28;0.28;;;11.70;99.90;;;;;;4991596;28;20042;-64
2023/10/28 10:19:42;;;;;;;0.10;0.10;;;11.70;99.90;;;;;;4989604;28;20045;-64
2023/10/28 10:22:08;;;;;;;0.20;0.20;;;11.70;99.90;;;;;;4987868;28;20051;-64
2023/10/28 10:24:34;;;;;;;0.00;0.00;;;11.70;99.90;;;;;;4986288;28;20129;-64
2023/10/28 10:27:02;;;;;;;0.00;0.00;;;11.80;99.90;;;;;;4994253;28;20035;-64
2023/10/28 10:29:42;;;;;;;0.10;0.10;;;11.80;99.90;;;;;;4984719;28;20108;-64
2023/10/28 10:32:17;;;;;;;0.03;0.03;;;11.90;99.90;;;;;;4980340;28;20046;-64
2023/10/28 10:34:45;;;;;;;0.25;0.25;;;11.90;99.90;;;;;;4982961;28;20042;-64
2023/10/28 10:37:24;;;;;;;1.55;1.45;;;12.00;99.90;;;;;;4988896;28;20043;-64
2023/10/28 10:39:49;;;;;;;0.20;0.20;;;12.00;99.90;;;;;;4984274;28;20043;-64
2023/10/28 10:42:16;;;;;;;0.10;0.10;;;12.00;99.90;;;;;;4989782;28;20096;-64
2023/10/28 10:44:41;;;;;;;0.10;0.10;;;12.00;99.90;;;;;;4990531;28;20128;-64
2023/10/28 10:47:09;;;;;;;1.17;0.55;;;12.00;99.90;;;;;;4991126;28;20478;-64
2023/10/28 10:49:39;;;;;;;0.00;0.00;;;12.00;99.90;;;;;;4982636;28;20112;-64
2023/10/28 10:52:05;;;;;;;0.10;0.10;;;12.10;99.90;;;;;;4988124;28;20064;-64
2023/10/28 10:54:34;;;;;;;0.68;0.68;;;12.10;99.90;;;;;;4992736;28;20050;-64
2023/10/28 10:57:00;;;;;;;0.10;0.10;;;12.10;99.90;;;;;;4980086;28;20427;-64
2023/10/28 10:59:32;;;;;;;0.20;0.20;;;12.10;99.90;;;;;;4984547;28;20066;-64
2023/10/28 11:02:00;;;;;;;0.47;0.47;;;12.20;99.90;;;;;;4988079;28;20042;-64
2023/10/28 11:04:26;;;;;;;0.10;0.10;;;12.20;99.90;;;;;;4974843;28;20166;-64
2023/10/28 11:06:52;;;;;;;0.00;0.00;;;12.20;99.90;;;;;;4986102;28;20046;-64
2023/10/28 11:09:17;;;;;;;0.10;0.10;;;12.20;99.90;;;;;;4981918;28;20193;-64
2023/10/28 11:11:43;;;;;;;0.10;0.10;;;12.20;99.90;;;;;;4982791;28;20125;-65
2023/10/28 11:14:10;;;;;;;1.08;0.90;;;12.20;99.90;;;;;;4980729;28;20121;-64
2023/10/28 11:16:38;;;;;;;1.30;1.20;;;12.20;99.90;;;;;;4990305;28;20065;-65
2023/10/28 11:19:05;;;;;;;0.17;0.17;;;12.20;99.90;;;;;;4982098;28;20069;-65
2023/10/28 11:21:31;;;;;;;0.00;0.00;;;12.20;99.90;;;;;;4991604;28;20090;-64
2023/10/28 11:23:57;;;;;;;0.00;0.00;;;12.20;99.90;;;;;;4988782;28;20055;-65
2023/10/28 11:26:27;;;;;;;0.00;0.00;;;12.10;99.90;;;;;;4987841;28;20181;-65
2023/10/28 11:28:57;;;;;;;0.00;0.00;;;12.10;99.90;;;;;;4992779;28;20490;-65
2023/10/28 11:31:23;;;;;;;0.00;0.00;;;12.20;99.90;;;;;;4990621;28;20095;-64
2023/10/28 11:33:50;;;;;;;3.97;1.65;;;12.20;99.90;;;;;;4976115;28;20050;-64
2023/10/28 11:36:17;;;;;;;0.10;0.10;;;12.20;99.90;;;;;;4980550;28;20116;-66
2023/10/28 11:38:45;;;;;;;0.10;0.10;;;12.20;99.90;;;;;;4985071;28;20047;-65
2023/10/28 11:41:13;;;;;;;0.20;0.20;;;12.20;99.90;;;;;;4988223;28;20038;-65
2023/10/28 11:43:39;;;;;;;3.13;2.33;;;12.20;99.90;;;;;;4989250;28;20061;-65
2023/10/28 11:46:05;;;;;;;0.10;0.10;;;12.30;99.90;;;;;;4985182;28;20034;-64
2023/10/28 11:48:34;;;;;;;0.20;0.20;;;12.30;99.90;;;;;;4980498;28;20122;-65
2023/10/28 11:51:00;;;;;;;0.40;0.40;;;12.30;99.90;;;;;;4987958;28;21571;-65
2023/10/28 11:53:27;;;;;;;0.10;0.10;;;12.40;99.90;;;;;;4990855;28;20035;-65
2023/10/28 11:55:54;;;;;;;0.15;0.15;;;12.40;99.90;;;;;;4991575;28;20061;-65
2023/10/28 11:58:22;;;;;;;0.00;0.00;;;12.40;99.90;;;;;;4979933;28;20050;-65
2023/10/28 12:00:52;;;;;;;1.75;1.05;;;12.40;99.90;;;;;;4991847;28;20050;-64
2023/10/28 12:03:19;;;;;;;1.45;0.30;;;12.50;99.90;;;;;;4989442;28;20053;-65
2023/10/28 12:05:45;;;;;;;0.00;0.00;;;12.40;99.90;;;;;;4987952;28;20050;-65
2023/10/28 12:08:11;;;;;;;1.08;0.73;;;12.50;99.90;;;;;;4990035;28;20453;-65
2023/10/28 12:10:43;;;;;;;0.10;0.10;;;12.50;99.90;;;;;;4990793;28;20081;-66
2023/10/28 12:13:11;;;;;;;0.10;0.10;;;12.60;99.90;;;;;;4990463;28;20054;-65
2023/10/28 12:15:36;;;;;;;0.00;0.00;;;12.60;99.90;;;;;;4979383;28;20074;-65
2023/10/28 12:18:02;;;;;;;0.10;0.10;;;12.60;99.90;;;;;;4986485;28;20564;-65
2023/10/28 12:20:27;;;;;;;0.10;0.10;;;12.60;99.90;;;;;;4985587;28;20061;-65
2023/10/28 12:22:53;;;;;;;0.00;0.00;;;12.60;99.90;;;;;;4987738;28;20078;-65
2023/10/28 12:25:18;;;;;;;0.10;0.10;;;12.70;99.90;;;;;;4983015;28;20134;-65
2023/10/28 12:27:44;;;;;;;0.00;0.00;;;12.70;99.90;;;;;;4989934;28;20498;-65
2023/10/28 12:30:10;;;;;;;0.10;0.10;;;12.60;99.90;;;;;;4981987;28;20034;-65
2023/10/28 12:32:36;;;;;;;0.43;0.43;;;12.70;99.90;;;;;;4988943;28;20092;-65
2023/10/28 12:35:02;;;;;;;0.00;0.00;;;12.70;99.90;;;;;;4989823;28;20088;-65
2023/10/28 12:37:28;;;;;;;0.60;0.50;;;12.70;99.90;;;;;;4981953;28;20487;-65
2023/10/28 12:39:53;;;;;;;0.20;0.20;;;12.60;99.90;;;;;;4989843;28;20105;-66
2023/10/28 12:42:19;;;;;;;0.55;0.55;;;12.70;99.90;;;;;;4989073;28;20069;-65
2023/10/28 12:44:44;;;;;;;0.10;0.10;;;12.70;99.90;;;;;;4989119;28;20509;-65
2023/10/28 12:47:10;;;;;;;0.38;0.38;;;12.80;99.90;;;;;;4978787;28;20038;-65